Buckeye, AZ

10:21 PM MST on August 19, 2017 (GMT -0700)
Buckeye Municipal

Weather History for KBXK - October, 2012

Change the Weather History Date:

Sunday, October 7, 2012

  Actual Average (KGYR) Record (KGYR)
Temperature  
Mean Temperature 78 °F -  
Max Temperature 91 °F 90 °F 102 °F (1996)
Min Temperature 66 °F 62 °F 51 °F (2011)
Cooling Degree Days 14    
Growing Degree Days 28 (Base 50)    
Moisture  
Dew Point 41 °F    
Average Humidity 28    
Maximum Humidity 40    
Minimum Humidity 15    
Precipitation  
Precipitation 0.00 in - - ()
Sea Level Pressure  
Sea Level Pressure 29.85 in    
Wind  
Wind Speed 3 mph (East)    
Max Wind Speed 9 mph    
Max Gust Speed -    
Visibility 10 miles    
Events      
Averages and records for this station are not official NWS values.
T = Trace of Precipitation, MM = Missing Value Source: NWS Daily Summary

Daily Weather History Graph

Daily Weather History Graph

Search for Another Location

Airport or City:

Trip Planner

Search our weather history database for the weather conditions in past years. The results will help you decide how hot, cold, wet, or windy it might be!

Date:

Astronomy

Oct. 07, 2012 Rise Set
Actual Time 6:29 AM MST 6:06 PM MST
Civil Twilight 6:04 AM MST 6:31 PM MST
Nautical Twilight 5:36 AM MST 7:00 PM MST
Astronomical Twilight 5:07 AM MST 7:28 PM MST
Moon 11:32 PM MST (10/7) 12:57 PM MST (10/7)
Length of Visible Light 12h 26m
Length of Day
11h 36m
Waning Gibbous, 55% of the Moon is Illuminated
Oct 7
Waning Gibbous
Oct 8
Last Quarter
Oct 15
New
Oct 21
First Quarter
Oct 29
Full

Hourly Weather History & Observations

Time (MST) Temp. Dew Point Humidity Pressure Visibility Wind Dir Wind Speed Gust Speed Precip Events Conditions
12:15 AM 73.4 °F 44.6 °F 36% 29.83 in 10.0 mi Calm Calm - N/A   Partly Cloudy
12:35 AM 73.4 °F 41.0 °F 31% 29.83 in 10.0 mi Calm Calm - N/A   Scattered Clouds
12:55 AM 71.6 °F 41.0 °F 33% 29.83 in 10.0 mi North 4.6 mph - N/A   Mostly Cloudy
1:15 AM 71.6 °F 39.2 °F 31% 29.83 in 10.0 mi NNE 3.5 mph - N/A   Mostly Cloudy
1:35 AM 71.6 °F 39.2 °F 31% 29.83 in 10.0 mi Calm Calm - N/A   Partly Cloudy
1:55 AM 71.6 °F 39.2 °F 31% 29.83 in 10.0 mi Calm Calm - N/A   Clear
2:15 AM 71.6 °F 39.2 °F 31% 29.83 in 10.0 mi ENE 5.8 mph - N/A   Clear
2:35 AM 71.6 °F 39.2 °F 31% 29.83 in 10.0 mi East 3.5 mph - N/A   Mostly Cloudy
2:55 AM 73.4 °F 39.2 °F 29% 29.83 in 10.0 mi Calm Calm - N/A   Mostly Cloudy
3:15 AM 71.6 °F 39.2 °F 31% 29.83 in 10.0 mi Calm Calm - N/A   Mostly Cloudy
3:35 AM 73.4 °F 39.2 °F 29% 29.83 in 10.0 mi ESE 3.5 mph - N/A   Overcast
3:55 AM 69.8 °F 39.2 °F 33% 29.83 in 10.0 mi NE 3.5 mph - N/A   Mostly Cloudy
4:15 AM 69.8 °F 39.2 °F 33% 29.83 in 10.0 mi NE 3.5 mph - N/A   Mostly Cloudy
4:35 AM 69.8 °F 39.2 °F 33% 29.83 in 10.0 mi NE 3.5 mph - N/A   Mostly Cloudy
4:55 AM 68.0 °F 39.2 °F 35% 29.84 in 10.0 mi Calm Calm - N/A   Overcast
5:15 AM 68.0 °F 39.2 °F 35% 29.84 in 10.0 mi NNE 3.5 mph - N/A   Mostly Cloudy
5:35 AM 68.0 °F 41.0 °F 37% 29.84 in 10.0 mi Calm Calm - N/A   Overcast
5:55 AM 68.0 °F 41.0 °F 37% 29.85 in 10.0 mi Calm Calm - N/A   Mostly Cloudy
6:15 AM 66.2 °F 41.0 °F 40% 29.86 in 10.0 mi Calm Calm - N/A   Mostly Cloudy
6:35 AM 66.2 °F 41.0 °F 40% 29.86 in 10.0 mi Calm Calm - N/A   Clear
6:55 AM 66.2 °F 41.0 °F 40% 29.87 in 10.0 mi NNW 3.5 mph - N/A   Clear
7:15 AM 66.2 °F 41.0 °F 40% 29.87 in 10.0 mi Calm Calm - N/A   Clear
7:35 AM 68.0 °F 41.0 °F 37% 29.88 in 10.0 mi Calm Calm - N/A   Clear
7:55 AM 69.8 °F 41.0 °F 35% 29.89 in 10.0 mi NNW 3.5 mph - N/A   Clear
8:15 AM 71.6 °F 41.0 °F 33% 29.90 in 10.0 mi NNW 3.5 mph - N/A   Clear
8:35 AM 73.4 °F 41.0 °F 31% 29.90 in 10.0 mi Calm Calm - N/A   Clear
8:55 AM 75.2 °F 41.0 °F 29% 29.91 in 10.0 mi Calm Calm - N/A   Clear
9:15 AM 77.0 °F 48.2 °F 36% 29.91 in 10.0 mi ESE 3.5 mph - N/A   Clear
9:35 AM 80.6 °F 46.4 °F 30% 29.91 in 10.0 mi ESE 8.1 mph - N/A   Clear
9:55 AM 82.4 °F 44.6 °F 26% 29.91 in 10.0 mi ESE 9.2 mph - N/A   Clear
10:15 AM 82.4 °F 44.6 °F 26% 29.91 in 10.0 mi ESE 9.2 mph - N/A   Clear
10:35 AM 84.2 °F 44.6 °F 25% 29.91 in 10.0 mi ESE 8.1 mph - N/A   Clear
10:55 AM 84.2 °F 44.6 °F 25% 29.90 in 10.0 mi ESE 6.9 mph - N/A   Clear
11:15 AM 84.2 °F 44.6 °F 25% 29.90 in 10.0 mi SE 5.8 mph - N/A   Clear
11:35 AM 86.0 °F 46.4 °F 25% 29.90 in 10.0 mi SSE 5.8 mph - N/A   Clear
11:55 AM 86.0 °F 46.4 °F 25% 29.89 in 10.0 mi SSE 8.1 mph - N/A   Clear
12:35 PM 87.8 °F 44.6 °F 22% 29.88 in 10.0 mi SE 6.9 mph - N/A   Clear
12:55 PM 89.6 °F 42.8 °F 20% 29.87 in 10.0 mi SSE 4.6 mph - N/A   Clear
1:15 PM 89.6 °F 41.0 °F 18% 29.86 in 10.0 mi SSE 4.6 mph - N/A   Clear
1:35 PM 89.6 °F 42.8 °F 20% 29.85 in 10.0 mi SSE 5.8 mph - N/A   Clear
1:55 PM 89.6 °F 42.8 °F 20% 29.84 in 10.0 mi SSE 3.5 mph - N/A   Clear
2:15 PM 89.6 °F 41.0 °F 18% 29.84 in 10.0 mi South 4.6 mph - N/A   Clear
2:35 PM 91.4 °F 37.4 °F 15% 29.83 in 10.0 mi SSW 5.8 mph - N/A   Clear
2:55 PM 91.4 °F 41.0 °F 17% 29.83 in 10.0 mi SSE 4.6 mph - N/A   Clear
3:15 PM 91.4 °F 39.2 °F 16% 29.82 in 10.0 mi South 3.5 mph - N/A   Clear
3:35 PM 91.4 °F 39.2 °F 16% 29.82 in 10.0 mi South 3.5 mph - N/A   Clear
3:55 PM 91.4 °F 39.2 °F 16% 29.81 in 10.0 mi South 3.5 mph - N/A   Clear
4:15 PM 91.4 °F 41.0 °F 17% 29.81 in 10.0 mi SSE 4.6 mph - N/A   Clear
4:35 PM 91.4 °F 39.2 °F 16% 29.81 in 10.0 mi South 3.5 mph - N/A   Clear
4:55 PM 91.4 °F 41.0 °F 17% 29.81 in 10.0 mi ESE 3.5 mph - N/A   Clear
5:15 PM 91.4 °F 41.0 °F 17% 29.81 in 10.0 mi Calm Calm - N/A   Clear
5:35 PM 91.4 °F 41.0 °F 17% 29.81 in 10.0 mi Calm Calm - N/A   Clear
5:55 PM 89.6 °F 42.8 °F 20% 29.81 in 10.0 mi Calm Calm - N/A   Clear
6:15 PM 86.0 °F 42.8 °F 22% 29.81 in 10.0 mi Calm Calm - N/A   Clear
6:55 PM 82.4 °F 46.4 °F 28% 29.82 in 10.0 mi Calm Calm - N/A   Clear
7:15 PM 80.6 °F 46.4 °F 30% 29.83 in 10.0 mi Calm Calm - N/A   Clear
7:35 PM 82.4 °F 44.6 °F 26% 29.83 in 10.0 mi Calm Calm - N/A   Clear
7:55 PM 78.8 °F 41.0 °F 26% 29.84 in 10.0 mi North 3.5 mph - N/A   Clear
8:15 PM 80.6 °F 42.8 °F 26% 29.84 in 10.0 mi West 3.5 mph - N/A   Clear
8:35 PM 78.8 °F 41.0 °F 26% 29.85 in 10.0 mi North 3.5 mph - N/A   Clear
8:55 PM 77.0 °F 41.0 °F 28% 29.85 in 10.0 mi NNE 3.5 mph - N/A   Clear
9:15 PM 75.2 °F 39.2 °F 27% 29.86 in 10.0 mi North 4.6 mph - N/A   Clear
9:35 PM 75.2 °F 39.2 °F 27% 29.86 in 10.0 mi North 4.6 mph - N/A   Clear
9:55 PM 73.4 °F 39.2 °F 29% 29.86 in 10.0 mi North 5.8 mph - N/A   Clear
10:15 PM 73.4 °F 39.2 °F 29% 29.86 in 10.0 mi NNE 5.8 mph - N/A   Clear
10:35 PM 73.4 °F 39.2 °F 29% 29.86 in 10.0 mi NNE 6.9 mph - N/A   Clear
10:55 PM 73.4 °F 39.2 °F 29% 29.86 in 10.0 mi NNE 4.6 mph - N/A   Clear
11:15 PM 73.4 °F 39.2 °F 29% 29.86 in 10.0 mi Calm Calm - N/A   Clear
11:35 PM 68.0 °F 39.2 °F 35% 29.86 in 10.0 mi Calm Calm - N/A   Clear
11:55 PM 69.8 °F 39.2 °F 33% 29.86 in 10.0 mi Calm Calm - N/A   Clear